Time;durP1;ratioP1;P1;durP2;ratioP2;P2;SDS_P1;SDS_P2;PMS_P1;PMS_P2;Temp;Humidity;BMP_temperature;BMP_pressure;BME280_temperature;BME280_humidity;BME280_pressure;Samples;Min_cycle;Max_cycle;Signal;HPM_P1;HPM_P2
2022/10/30 00:00:30;;;;;;;6.43;3.80;;;20.00;92.50;;;;;;5019599;28;20606;-77
2022/10/30 00:02:58;;;;;;;10.95;5.32;;;20.00;92.70;;;;;;5026032;28;20222;-76
2022/10/30 00:05:25;;;;;;;8.57;4.65;;;19.90;92.70;;;;;;5016140;28;20204;-76
2022/10/30 00:07:55;;;;;;;10.02;4.18;;;19.90;92.70;;;;;;5007889;28;20215;-76
2022/10/30 00:10:24;;;;;;;6.65;4.40;;;20.00;92.80;;;;;;5026570;28;20224;-76
2022/10/30 00:12:51;;;;;;;7.60;4.15;;;19.90;92.90;;;;;;5011022;28;20202;-76
2022/10/30 00:15:19;;;;;;;11.35;4.65;;;19.90;92.90;;;;;;5026651;28;20235;-76
2022/10/30 00:17:46;;;;;;;7.55;4.40;;;19.90;93.00;;;;;;5025775;28;20207;-76
2022/10/30 00:20:14;;;;;;;8.00;4.38;;;19.90;93.10;;;;;;5012000;28;20226;-76
2022/10/30 00:22:41;;;;;;;7.13;4.20;;;19.80;93.20;;;;;;5026140;28;20215;-76
2022/10/30 00:25:09;;;;;;;12.05;4.55;;;19.80;93.20;;;;;;5010232;28;20195;-76
2022/10/30 00:27:37;;;;;;;6.88;4.10;;;19.80;93.30;;;;;;5017446;28;20203;-76
2022/10/30 00:30:06;;;;;;;9.07;4.22;;;19.80;93.30;;;;;;5026477;28;20727;-76
2022/10/30 00:32:33;;;;;;;9.85;4.78;;;19.80;93.40;;;;;;5014121;28;20210;-76
2022/10/30 00:35:01;;;;;;;7.63;4.30;;;19.80;93.40;;;;;;5011528;28;20657;-76
2022/10/30 00:37:28;;;;;;;9.80;4.38;;;19.80;93.60;;;;;;5014348;28;20200;-76
2022/10/30 00:39:55;;;;;;;10.30;4.55;;;19.80;93.70;;;;;;5029456;28;20238;-76
2022/10/30 00:42:28;;;;;;;8.15;4.80;;;19.80;93.70;;;;;;5011738;28;20212;-76
2022/10/30 00:44:57;;;;;;;9.40;4.38;;;19.80;93.80;;;;;;5012648;28;20207;-76
2022/10/30 00:47:29;;;;;;;9.95;4.47;;;19.70;93.90;;;;;;5019288;28;20197;-76
2022/10/30 00:50:01;;;;;;;10.65;4.25;;;19.80;94.00;;;;;;5028969;28;20227;-76
2022/10/30 00:52:34;;;;;;;8.93;4.15;;;19.80;94.00;;;;;;5010932;28;20208;-76
2022/10/30 00:55:05;;;;;;;7.97;4.22;;;19.70;94.10;;;;;;5012447;28;20207;-76
2022/10/30 00:57:33;;;;;;;8.45;4.43;;;19.70;94.10;;;;;;5016568;28;20212;-76
2022/10/30 01:00:04;;;;;;;11.93;4.53;;;19.70;94.10;;;;;;5012034;28;20219;-76
2022/10/30 01:02:32;;;;;;;10.52;4.25;;;19.70;94.20;;;;;;5022471;28;20234;-76
2022/10/30 01:05:00;;;;;;;9.20;4.25;;;19.70;94.10;;;;;;5008412;28;20208;-76
2022/10/30 01:07:28;;;;;;;10.85;3.85;;;19.70;94.10;;;;;;5016511;28;20204;-76
2022/10/30 01:09:56;;;;;;;14.05;4.78;;;19.70;94.10;;;;;;5011371;28;20226;-77
2022/10/30 01:12:23;;;;;;;9.27;4.70;;;19.70;94.10;;;;;;5013892;28;20188;-76
2022/10/30 01:14:55;;;;;;;9.65;4.22;;;19.70;94.10;;;;;;5027777;28;20199;-76
2022/10/30 01:17:48;;;;;;;6.70;4.15;;;19.70;94.10;;;;;;5019098;28;20199;-76
2022/10/30 01:20:30;;;;;;;8.95;4.30;;;19.70;94.10;;;;;;5012641;28;20723;-76
2022/10/30 01:23:08;;;;;;;6.90;4.90;;;19.70;94.10;;;;;;5013201;28;20222;-76
2022/10/30 01:25:51;;;;;;;10.38;4.80;;;19.70;94.20;;;;;;5013217;28;20230;-76
2022/10/30 01:28:28;;;;;;;8.88;4.28;;;19.60;94.20;;;;;;5023384;28;20200;-76
2022/10/30 01:31:08;;;;;;;6.82;3.88;;;19.70;94.30;;;;;;5028716;28;20223;-76
2022/10/30 01:33:50;;;;;;;9.27;4.40;;;19.60;94.70;;;;;;5013200;28;20203;-76
2022/10/30 01:36:23;;;;;;;11.55;4.03;;;19.60;94.50;;;;;;5013855;28;20187;-76
2022/10/30 01:38:54;;;;;;;6.93;4.32;;;19.60;94.50;;;;;;5004178;28;20211;-76
2022/10/30 01:41:22;;;;;;;8.00;4.40;;;19.50;94.50;;;;;;5028036;28;20224;-76
2022/10/30 01:43:53;;;;;;;8.00;4.00;;;19.50;94.50;;;;;;5009516;28;20231;-76
2022/10/30 01:46:39;;;;;;;6.03;4.03;;;19.50;94.60;;;;;;5012936;28;20203;-76
2022/10/30 01:49:30;;;;;;;8.68;4.50;;;19.50;94.50;;;;;;5008745;28;20195;-76
2022/10/30 01:52:11;;;;;;;12.75;4.70;;;19.50;94.50;;;;;;5012628;28;20200;-77
2022/10/30 01:54:45;;;;;;;9.23;4.68;;;19.50;94.40;;;;;;5028177;28;20201;-76
2022/10/30 01:57:21;;;;;;;7.55;4.22;;;19.50;94.40;;;;;;5010278;28;20195;-76
2022/10/30 01:59:55;;;;;;;9.38;4.75;;;19.50;94.40;;;;;;5026531;28;20230;-76
2022/10/30 02:02:22;;;;;;;8.63;4.25;;;19.50;94.30;;;;;;5028328;28;20203;-77
2022/10/30 02:04:52;;;;;;;10.23;4.72;;;19.50;94.30;;;;;;5011564;28;20200;-76
2022/10/30 02:07:19;;;;;;;6.78;4.22;;;19.50;94.40;;;;;;5027855;28;20195;-76
2022/10/30 02:09:51;;;;;;;8.15;4.40;;;19.50;94.30;;;;;;5009416;28;20219;-76
2022/10/30 02:12:19;;;;;;;10.32;4.38;;;19.50;94.30;;;;;;5013860;28;20199;-76
2022/10/30 02:14:50;;;;;;;8.30;3.90;;;19.50;94.40;;;;;;5025641;28;20574;-76
2022/10/30 02:17:18;;;;;;;12.25;4.20;;;19.50;94.40;;;;;;5020720;28;20192;-76
2022/10/30 02:19:46;;;;;;;7.07;4.03;;;19.50;94.50;;;;;;5006307;28;20214;-76
2022/10/30 02:22:15;;;;;;;10.05;4.70;;;19.50;94.40;;;;;;5012211;28;20657;-76
2022/10/30 02:24:44;;;;;;;7.22;4.57;;;19.50;94.40;;;;;;5000868;28;20212;-76
2022/10/30 02:27:12;;;;;;;9.20;4.72;;;19.50;94.40;;;;;;5026899;28;20203;-76
2022/10/30 02:29:48;;;;;;;8.10;4.30;;;19.50;94.50;;;;;;5011528;28;20223;-76
2022/10/30 02:32:15;;;;;;;8.80;3.65;;;19.50;94.50;;;;;;5013744;28;20207;-76
2022/10/30 02:34:44;;;;;;;8.30;4.28;;;19.50;94.50;;;;;;5025760;28;20670;-76
2022/10/30 02:37:12;;;;;;;9.68;4.20;;;19.50;94.40;;;;;;5027757;28;20206;-76
2022/10/30 02:39:41;;;;;;;8.10;4.00;;;19.50;94.40;;;;;;5011465;28;20207;-76
2022/10/30 02:42:09;;;;;;;6.43;4.30;;;19.40;94.50;;;;;;5019134;28;20200;-76
2022/10/30 02:44:36;;;;;;;10.60;4.20;;;19.50;94.50;;;;;;5027705;28;20219;-76
2022/10/30 02:47:04;;;;;;;8.32;3.92;;;19.40;94.50;;;;;;5028700;28;20199;-76
2022/10/30 02:49:31;;;;;;;10.13;4.03;;;19.40;94.60;;;;;;5003183;28;20200;-76
2022/10/30 02:51:59;;;;;;;9.55;4.40;;;19.30;94.90;;;;;;5000119;28;20216;-76
2022/10/30 02:54:26;;;;;;;6.03;4.05;;;19.30;94.70;;;;;;5009751;28;20697;-76
2022/10/30 02:56:55;;;;;;;9.77;4.20;;;19.20;94.80;;;;;;4998544;28;20200;-76
2022/10/30 02:59:22;;;;;;;8.23;4.28;;;19.20;95.10;;;;;;5011355;28;20571;-76
2022/10/30 03:01:51;;;;;;;8.00;4.45;;;19.20;95.20;;;;;;5027635;28;20236;-76
2022/10/30 03:04:18;;;;;;;8.25;4.70;;;19.10;95.30;;;;;;5017770;28;20211;-76
2022/10/30 03:06:46;;;;;;;8.95;4.43;;;19.10;95.30;;;;;;5010714;28;20206;-76
2022/10/30 03:09:13;;;;;;;8.95;4.35;;;19.00;95.50;;;;;;5024866;28;20196;-76
2022/10/30 03:12:05;;;;;;;8.05;4.25;;;19.00;95.60;;;;;;5009527;28;20231;-76
2022/10/30 03:14:32;;;;;;;10.82;5.40;;;19.00;95.70;;;;;;4999013;28;20193;-76
2022/10/30 03:17:00;;;;;;;11.25;4.47;;;19.00;95.90;;;;;;5024362;28;20192;-76
2022/10/30 03:19:27;;;;;;;7.30;4.07;;;19.00;96.00;;;;;;5009063;28;20200;-76
2022/10/30 03:21:55;;;;;;;9.18;4.22;;;19.00;96.00;;;;;;5027534;28;20208;-76
2022/10/30 03:24:22;;;;;;;9.93;4.47;;;19.00;96.10;;;;;;5026795;28;20227;-76
2022/10/30 03:26:50;;;;;;;9.25;5.00;;;19.00;96.20;;;;;;5010139;28;20202;-76
2022/10/30 03:29:19;;;;;;;8.15;4.25;;;19.00;96.30;;;;;;5009700;28;20215;-76
2022/10/30 03:31:46;;;;;;;8.98;4.57;;;19.00;96.20;;;;;;5025773;28;20239;-76
2022/10/30 03:34:19;;;;;;;6.72;4.10;;;19.00;96.40;;;;;;5007654;28;20200;-76
2022/10/30 03:36:46;;;;;;;8.13;4.38;;;18.90;96.60;;;;;;5006233;28;20570;-76
2022/10/30 03:39:14;;;;;;;9.02;4.45;;;18.90;96.70;;;;;;4998585;28;20208;-76
2022/10/30 03:41:44;;;;;;;4.60;3.70;;;18.80;96.90;;;;;;5019100;28;20216;-76
2022/10/30 03:44:13;;;;;;;12.93;4.85;;;18.90;97.00;;;;;;4992489;28;20209;-76
2022/10/30 03:46:41;;;;;;;12.73;4.82;;;18.90;97.00;;;;;;5004469;28;20196;-76
2022/10/30 03:49:29;;;;;;;8.25;4.65;;;18.80;97.30;;;;;;5005760;28;20211;-76
2022/10/30 03:52:07;;;;;;;11.32;5.00;;;18.70;97.40;;;;;;5024442;28;20204;-77
2022/10/30 03:54:34;;;;;;;7.90;4.60;;;18.80;97.60;;;;;;5009125;28;20183;-76
2022/10/30 03:57:02;;;;;;;8.32;4.40;;;18.70;97.90;;;;;;5014573;28;20689;-76
2022/10/30 03:59:37;;;;;;;8.40;4.25;;;18.60;98.20;;;;;;5005812;28;20206;-76
2022/10/30 04:02:25;;;;;;;6.38;4.25;;;18.50;98.60;;;;;;5013471;28;20681;-77
2022/10/30 04:04:53;;;;;;;7.32;5.03;;;18.60;98.90;;;;;;5023953;28;20203;-76
2022/10/30 04:07:21;;;;;;;11.52;4.90;;;18.50;98.90;;;;;;5009463;28;20200;-76
2022/10/30 04:09:48;;;;;;;12.45;5.00;;;18.50;99.20;;;;;;5009895;28;20199;-76
2022/10/30 04:12:25;;;;;;;13.02;5.03;;;18.50;99.10;;;;;;5023299;28;20201;-77
2022/10/30 04:14:57;;;;;;;10.13;4.85;;;18.40;99.30;;;;;;4995644;28;20570;-76
2022/10/30 04:17:26;;;;;;;7.82;4.57;;;18.50;99.40;;;;;;5007020;28;20200;-76
2022/10/30 04:19:56;;;;;;;8.48;4.82;;;18.50;99.30;;;;;;5003529;28;20220;-76
2022/10/30 04:22:23;;;;;;;12.07;4.78;;;18.50;99.50;;;;;;5009291;28;20211;-76
2022/10/30 04:24:52;;;;;;;11.05;4.80;;;18.30;99.60;;;;;;5025704;28;20566;-76
2022/10/30 04:27:24;;;;;;;8.15;4.20;;;18.40;99.90;;;;;;5045106;28;20582;-77
2022/10/30 04:29:52;;;;;;;8.70;4.85;;;18.30;99.90;;;;;;4998506;28;20224;-76
2022/10/30 04:32:19;;;;;;;6.45;4.22;;;18.30;99.90;;;;;;5021556;28;20204;-76
2022/10/30 04:34:52;;;;;;;6.97;5.10;;;18.20;99.90;;;;;;5011040;28;20215;-76
2022/10/30 04:37:19;;;;;;;6.53;4.80;;;18.20;99.90;;;;;;5006145;28;20196;-76
2022/10/30 04:39:48;;;;;;;7.25;4.40;;;18.10;99.90;;;;;;5010266;28;20541;-77
2022/10/30 04:42:20;;;;;;;8.68;4.50;;;18.10;99.90;;;;;;5023382;28;20200;-76
2022/10/30 04:44:47;;;;;;;8.43;4.05;;;18.10;99.90;;;;;;5008409;28;20235;-76
2022/10/30 04:47:53;;;;;;;12.25;5.45;;;18.00;99.90;;;;;;5017251;28;20553;-76
2022/10/30 04:50:22;;;;;;;9.65;4.35;;;18.00;99.90;;;;;;5010878;28;20219;-76
2022/10/30 04:52:57;;;;;;;10.38;4.75;;;18.00;99.90;;;;;;5023758;28;20197;-76
2022/10/30 04:55:25;;;;;;;9.75;4.63;;;17.90;99.90;;;;;;5013140;28;20201;-76
2022/10/30 04:57:56;;;;;;;10.60;5.10;;;17.80;99.90;;;;;;5025153;28;20207;-77
2022/10/30 05:00:24;;;;;;;11.82;4.88;;;17.80;99.90;;;;;;5013839;28;20215;-77
2022/10/30 05:02:51;;;;;;;6.97;4.80;;;17.90;99.90;;;;;;5011096;28;20200;-77
2022/10/30 05:05:19;;;;;;;10.80;5.43;;;17.90;99.90;;;;;;5011131;28;20589;-77
2022/10/30 05:07:48;;;;;;;7.43;4.28;;;17.90;99.90;;;;;;5012199;28;20558;-77
2022/10/30 05:10:17;;;;;;;9.93;5.30;;;17.90;99.90;;;;;;5027110;28;20231;-77
2022/10/30 05:12:45;;;;;;;7.60;4.60;;;18.00;99.90;;;;;;5033881;28;20207;-77
2022/10/30 05:15:14;;;;;;;8.82;4.40;;;18.00;99.90;;;;;;5019233;28;20196;-76
2022/10/30 05:17:41;;;;;;;9.02;4.55;;;18.00;99.90;;;;;;5016195;28;20673;-77
2022/10/30 05:20:10;;;;;;;6.93;4.47;;;18.00;99.90;;;;;;5030676;28;20243;-76
2022/10/30 05:22:37;;;;;;;8.63;5.30;;;18.00;99.90;;;;;;5010523;28;20284;-76
2022/10/30 05:25:07;;;;;;;7.32;4.30;;;18.00;99.90;;;;;;5004810;28;20219;-77
2022/10/30 05:27:35;;;;;;;10.25;5.10;;;18.00;99.90;;;;;;5014394;28;20672;-76
2022/10/30 05:30:06;;;;;;;7.45;4.82;;;18.00;99.90;;;;;;5009822;28;20224;-77
2022/10/30 05:32:33;;;;;;;7.60;4.60;;;17.90;99.90;;;;;;5009000;28;20212;-76
2022/10/30 05:35:01;;;;;;;9.02;4.68;;;17.90;99.90;;;;;;5004802;28;20674;-77
2022/10/30 05:37:28;;;;;;;8.98;4.70;;;17.90;99.90;;;;;;5017691;28;20196;-77
2022/10/30 05:39:56;;;;;;;10.05;4.68;;;17.90;99.90;;;;;;5009573;28;20613;-76
2022/10/30 05:42:28;;;;;;;9.57;4.47;;;17.90;99.90;;;;;;4999008;28;20200;-76
2022/10/30 05:44:58;;;;;;;7.10;4.47;;;17.80;99.90;;;;;;5018344;28;20208;-77
2022/10/30 05:47:26;;;;;;;11.05;5.00;;;17.80;99.90;;;;;;5025230;28;20196;-76
2022/10/30 05:49:56;;;;;;;8.52;4.32;;;17.80;99.90;;;;;;5007024;28;20224;-77
2022/10/30 05:52:28;;;;;;;7.15;4.47;;;17.80;99.90;;;;;;5011873;28;20196;-77
2022/10/30 05:54:55;;;;;;;9.05;5.55;;;17.80;99.90;;;;;;5006946;28;20562;-77
2022/10/30 05:57:43;;;;;;;11.05;5.20;;;17.80;99.90;;;;;;5027510;28;20199;-77
2022/10/30 06:00:12;;;;;;;8.00;4.50;;;17.80;99.90;;;;;;5027106;28;20759;-77
2022/10/30 06:02:45;;;;;;;6.32;4.35;;;17.80;99.90;;;;;;5027680;28;20570;-77
2022/10/30 06:05:14;;;;;;;7.28;4.93;;;17.70;99.90;;;;;;5027152;28;20212;-77
2022/10/30 06:07:42;;;;;;;8.95;4.97;;;17.60;99.90;;;;;;5010031;28;20196;-77
2022/10/30 06:10:09;;;;;;;9.48;4.68;;;17.50;99.90;;;;;;5021764;28;20682;-77
2022/10/30 06:13:00;;;;;;;9.13;4.95;;;17.50;99.90;;;;;;5010535;28;20201;-77
2022/10/30 06:15:39;;;;;;;9.82;5.45;;;17.40;99.90;;;;;;5015252;28;20195;-77
2022/10/30 06:18:07;;;;;;;8.98;5.28;;;17.50;99.90;;;;;;5013868;28;20666;-77
2022/10/30 06:20:43;;;;;;;7.95;5.35;;;17.50;99.90;;;;;;5005651;28;20237;-77
2022/10/30 06:23:26;;;;;;;8.82;4.72;;;17.40;99.90;;;;;;5015053;28;20206;-77
2022/10/30 06:25:59;;;;;;;12.95;5.45;;;17.50;99.90;;;;;;5024970;28;20576;-77
2022/10/30 06:28:51;;;;;;;7.35;4.90;;;17.50;99.90;;;;;;5027268;28;20212;-76
2022/10/30 06:31:19;;;;;;;8.27;4.65;;;17.40;99.90;;;;;;5005659;28;20228;-77
2022/10/30 06:33:46;;;;;;;7.00;5.13;;;17.40;99.90;;;;;;5022852;28;20201;-76
2022/10/30 06:36:16;;;;;;;9.07;4.68;;;17.50;99.90;;;;;;4999418;28;20196;-77
2022/10/30 06:38:44;;;;;;;8.07;5.35;;;17.50;99.90;;;;;;5024523;28;20208;-77
2022/10/30 06:41:13;;;;;;;9.70;5.30;;;17.50;99.90;;;;;;5002207;28;20215;-76
2022/10/30 06:44:03;;;;;;;13.55;5.60;;;17.50;99.90;;;;;;5020207;28;20298;-77
2022/10/30 06:46:32;;;;;;;9.88;4.85;;;17.50;99.90;;;;;;5003655;28;20228;-76
2022/10/30 06:49:00;;;;;;;9.13;5.07;;;17.40;99.90;;;;;;5026004;28;20211;-77
2022/10/30 06:51:28;;;;;;;8.63;5.40;;;17.30;99.90;;;;;;5006675;28;20218;-76
2022/10/30 06:53:56;;;;;;;9.90;5.07;;;17.40;99.90;;;;;;5011067;28;20532;-76
2022/10/30 06:56:38;;;;;;;10.82;5.00;;;17.40;99.90;;;;;;5017445;28;20206;-76
2022/10/30 06:59:25;;;;;;;10.32;5.30;;;17.40;99.90;;;;;;5022312;28;20554;-76
2022/10/30 07:02:11;;;;;;;8.95;5.20;;;17.40;99.90;;;;;;5013229;28;20214;-79
2022/10/30 07:04:51;;;;;;;7.70;5.00;;;17.30;99.90;;;;;;5011761;28;20663;-79
2022/10/30 07:07:19;;;;;;;9.63;4.80;;;17.40;99.90;;;;;;5022641;28;20201;-79
2022/10/30 07:09:47;;;;;;;8.88;4.63;;;17.40;99.90;;;;;;5023611;28;20208;-79
2022/10/30 07:12:16;;;;;;;14.40;5.45;;;17.40;99.90;;;;;;5014425;28;20199;-79
2022/10/30 07:14:58;;;;;;;13.68;5.97;;;17.50;99.90;;;;;;5012560;28;20658;-79
2022/10/30 07:17:35;;;;;;;9.45;5.68;;;17.50;99.90;;;;;;5025135;28;20196;-79
2022/10/30 07:20:09;;;;;;;8.38;4.72;;;17.40;99.90;;;;;;5007194;28;20221;-80
2022/10/30 07:22:40;;;;;;;11.25;5.63;;;17.40;99.90;;;;;;5019592;28;20608;-79
2022/10/30 07:25:09;;;;;;;10.30;5.75;;;17.40;99.90;;;;;;5031303;28;20218;-79
2022/10/30 07:27:56;;;;;;;8.10;5.13;;;17.40;99.90;;;;;;5023541;28;20322;-79
2022/10/30 07:30:48;;;;;;;10.23;5.22;;;17.50;99.90;;;;;;5005962;28;20227;-79
2022/10/30 07:33:41;;;;;;;10.23;5.07;;;17.60;99.90;;;;;;5014857;28;20207;-79
2022/10/30 07:36:38;;;;;;;11.48;5.90;;;17.50;99.90;;;;;;5012215;28;20573;-79
2022/10/30 07:39:24;;;;;;;7.65;5.50;;;17.70;99.90;;;;;;5017889;28;20199;-79
2022/10/30 07:42:24;;;;;;;10.65;5.25;;;17.70;99.90;;;;;;4979395;28;20210;-79
2022/10/30 07:45:11;;;;;;;9.65;5.72;;;17.80;99.90;;;;;;5028317;28;20562;-79
2022/10/30 07:48:18;;;;;;;8.00;4.93;;;17.90;99.90;;;;;;5008972;28;20203;-79
2022/10/30 07:50:53;;;;;;;9.85;5.03;;;18.00;99.90;;;;;;5012398;28;20227;-79
2022/10/30 07:53:21;;;;;;;11.50;5.05;;;18.00;99.90;;;;;;5002080;28;20264;-79
2022/10/30 07:55:49;;;;;;;10.82;5.00;;;18.10;99.90;;;;;;5015723;28;20688;-79
2022/10/30 07:58:43;;;;;;;8.93;4.65;;;18.10;99.90;;;;;;5023406;28;20203;-79
2022/10/30 08:01:36;;;;;;;10.38;5.50;;;18.30;99.90;;;;;;5008497;28;20223;-79
2022/10/30 08:04:27;;;;;;;11.02;5.03;;;18.20;99.90;;;;;;5005519;28;20207;-79
2022/10/30 08:07:00;;;;;;;11.60;5.40;;;18.30;99.90;;;;;;5010236;28;20207;-80
2022/10/30 08:09:27;;;;;;;12.00;5.03;;;18.30;99.90;;;;;;5014587;28;20993;-79
2022/10/30 08:11:55;;;;;;;8.68;4.97;;;18.30;99.90;;;;;;5024577;28;20219;-79
2022/10/30 08:14:22;;;;;;;10.23;5.07;;;18.40;99.90;;;;;;5031410;28;20184;-78
2022/10/30 08:16:55;;;;;;;7.18;5.63;;;18.50;99.90;;;;;;5015621;28;20191;-79
2022/10/30 08:19:22;;;;;;;10.00;5.03;;;18.50;99.90;;;;;;5014212;28;20200;-79
2022/10/30 08:21:54;;;;;;;10.57;5.32;;;18.40;99.90;;;;;;5029899;28;20731;-79
2022/10/30 08:24:26;;;;;;;12.13;6.07;;;18.50;99.90;;;;;;5031460;28;20204;-79
2022/10/30 08:26:55;;;;;;;8.75;5.35;;;18.60;99.90;;;;;;5019763;28;20223;-79
2022/10/30 08:29:23;;;;;;;11.52;5.53;;;18.60;99.90;;;;;;5026569;28;20213;-79
2022/10/30 08:31:52;;;;;;;10.38;4.80;;;18.60;99.90;;;;;;5014177;28;20224;-79
2022/10/30 08:34:23;;;;;;;10.80;5.55;;;18.60;99.90;;;;;;5022021;28;20199;-79
2022/10/30 08:36:54;;;;;;;7.20;5.13;;;18.60;99.90;;;;;;5013610;28;20199;-79
2022/10/30 08:39:22;;;;;;;9.15;4.90;;;18.70;99.90;;;;;;5014264;28;20200;-79
2022/10/30 08:41:59;;;;;;;9.48;5.72;;;18.80;99.90;;;;;;5013423;28;20566;-79
2022/10/30 08:44:28;;;;;;;12.70;5.93;;;18.80;99.90;;;;;;5013356;28;20204;-79
2022/10/30 08:47:25;;;;;;;10.80;5.68;;;18.80;99.90;;;;;;5001277;28;20569;-79
2022/10/30 08:49:53;;;;;;;9.45;5.47;;;18.80;99.90;;;;;;5026748;28;20237;-79
2022/10/30 08:52:26;;;;;;;8.70;4.72;;;18.90;99.90;;;;;;5016006;28;20191;-79
2022/10/30 08:54:56;;;;;;;10.88;5.25;;;18.90;99.90;;;;;;5033100;28;20206;-79
2022/10/30 08:57:26;;;;;;;5.68;5.05;;;19.00;99.90;;;;;;5026729;28;20558;-79
2022/10/30 09:00:01;;;;;;;10.32;5.30;;;19.10;99.90;;;;;;5030011;28;20218;-79
2022/10/30 09:03:01;;;;;;;8.77;5.38;;;19.20;99.90;;;;;;5019203;28;20203;-79
2022/10/30 09:05:54;;;;;;;12.95;5.38;;;19.30;99.90;;;;;;5019480;28;20214;-79
2022/10/30 09:08:41;;;;;;;8.05;4.95;;;19.30;99.90;;;;;;5035210;28;20230;-79
2022/10/30 09:11:17;;;;;;;8.15;4.70;;;19.50;99.90;;;;;;5019650;28;20240;-79
2022/10/30 09:13:46;;;;;;;8.43;5.07;;;19.70;99.90;;;;;;5034615;28;20204;-79
2022/10/30 09:16:13;;;;;;;9.88;5.00;;;19.70;99.90;;;;;;5029580;28;20196;-79
2022/10/30 09:18:42;;;;;;;11.60;5.00;;;19.70;99.90;;;;;;5025441;28;20200;-79
2022/10/30 09:21:09;;;;;;;8.93;5.10;;;19.80;99.90;;;;;;5024419;28;20227;-79
2022/10/30 09:23:46;;;;;;;8.43;5.55;;;19.80;99.90;;;;;;5027900;28;20202;-79
2022/10/30 09:26:32;;;;;;;10.90;5.82;;;19.90;99.90;;;;;;5037360;28;20222;-79
2022/10/30 09:29:30;;;;;;;7.90;5.13;;;20.00;99.90;;;;;;5009839;28;20196;-79
2022/10/30 09:32:10;;;;;;;8.43;4.90;;;20.00;99.90;;;;;;5024567;28;20219;-79
2022/10/30 09:34:50;;;;;;;6.63;5.03;;;20.00;99.90;;;;;;5031367;28;20562;-79
2022/10/30 09:37:27;;;;;;;8.55;4.55;;;20.00;99.90;;;;;;5027120;28;20561;-79
2022/10/30 09:40:01;;;;;;;10.38;4.95;;;20.00;99.90;;;;;;5017715;28;20243;-79
2022/10/30 09:42:42;;;;;;;11.05;4.55;;;20.10;99.90;;;;;;5033376;28;20193;-79
2022/10/30 09:45:48;;;;;;;9.98;4.90;;;20.20;99.90;;;;;;5016738;28;20199;-79
2022/10/30 09:48:32;;;;;;;9.60;4.80;;;20.30;99.90;;;;;;5034645;28;20216;-79
2022/10/30 09:51:18;;;;;;;8.13;4.72;;;20.40;99.90;;;;;;5013563;28;20219;-79
2022/10/30 09:54:00;;;;;;;8.68;5.03;;;20.40;99.90;;;;;;5030397;28;20200;-79
2022/10/30 09:56:40;;;;;;;10.55;4.93;;;20.70;99.90;;;;;;5033088;28;20195;-79
2022/10/30 09:59:16;;;;;;;11.23;4.60;;;20.70;99.90;;;;;;5021145;28;20195;-79
2022/10/30 10:01:49;;;;;;;10.10;5.03;;;20.80;99.70;;;;;;5024918;28;20228;-79
2022/10/30 10:04:25;;;;;;;12.02;4.50;;;20.70;99.80;;;;;;5029260;28;20212;-79
2022/10/30 10:07:19;;;;;;;10.48;5.53;;;21.00;99.90;;;;;;5026374;28;20214;-79
2022/10/30 10:10:03;;;;;;;12.57;5.60;;;20.90;99.30;;;;;;5025747;28;20678;-79
2022/10/30 10:12:50;;;;;;;10.27;5.22;;;21.10;98.50;;;;;;5028768;28;20192;-79
2022/10/30 10:15:27;;;;;;;11.43;5.15;;;21.20;98.60;;;;;;5018493;28;20200;-79
2022/10/30 10:17:56;;;;;;;6.45;4.28;;;21.20;98.70;;;;;;5017334;28;20210;-79
2022/10/30 10:20:30;;;;;;;8.70;4.95;;;21.30;97.70;;;;;;5028357;28;20222;-79
2022/10/30 10:22:59;;;;;;;10.27;4.57;;;21.30;98.50;;;;;;5032673;28;20208;-79
2022/10/30 10:25:31;;;;;;;9.63;4.63;;;21.40;98.20;;;;;;5029524;28;20215;-78
2022/10/30 10:28:14;;;;;;;11.20;4.47;;;21.60;97.40;;;;;;5029418;28;20226;-78
2022/10/30 10:30:51;;;;;;;9.10;4.25;;;21.60;96.50;;;;;;5028442;28;20246;-78
2022/10/30 10:33:48;;;;;;;8.05;4.30;;;21.50;96.40;;;;;;5026271;28;20207;-79
2022/10/30 10:36:30;;;;;;;9.32;4.90;;;21.60;96.30;;;;;;5029622;28;20211;-78
2022/10/30 10:39:07;;;;;;;10.68;5.20;;;21.70;96.40;;;;;;5018528;28;20199;-79
2022/10/30 10:41:55;;;;;;;10.70;4.25;;;21.80;96.10;;;;;;5018790;28;20246;-79
2022/10/30 10:44:37;;;;;;;9.85;4.75;;;22.00;95.70;;;;;;5025779;28;20201;-79
2022/10/30 10:47:18;;;;;;;9.63;4.63;;;22.10;96.00;;;;;;5012753;28;20728;-79
2022/10/30 10:50:03;;;;;;;9.75;4.25;;;22.30;95.60;;;;;;5019669;28;20203;-78
2022/10/30 10:52:37;;;;;;;8.75;4.82;;;22.30;95.50;;;;;;5031337;28;20200;-79
2022/10/30 10:55:09;;;;;;;9.75;4.57;;;22.40;94.90;;;;;;5010156;28;20203;-79
2022/10/30 10:57:39;;;;;;;8.13;4.70;;;22.70;94.70;;;;;;5033527;28;20196;-79
2022/10/30 11:00:14;;;;;;;7.40;4.45;;;22.60;94.50;;;;;;5019366;28;20218;-79
2022/10/30 11:02:47;;;;;;;11.65;4.55;;;22.60;94.70;;;;;;5036572;28;20207;-79
2022/10/30 11:05:24;;;;;;;7.60;4.35;;;23.00;94.10;;;;;;5015223;28;20208;-79
2022/10/30 11:07:52;;;;;;;8.68;4.53;;;23.50;94.00;;;;;;5020189;28;20231;-79
2022/10/30 11:10:22;;;;;;;10.07;4.95;;;23.60;92.50;;;;;;5018083;28;20211;-79
2022/10/30 11:12:50;;;;;;;7.68;4.55;;;23.50;92.90;;;;;;5038928;28;20581;-80
2022/10/30 11:15:34;;;;;;;8.07;4.50;;;23.50;92.00;;;;;;5018373;28;20200;-80
2022/10/30 11:18:04;;;;;;;8.65;4.50;;;23.60;92.40;;;;;;5020230;28;20200;-80
2022/10/30 11:20:40;;;;;;;7.95;4.05;;;23.80;91.60;;;;;;5018504;28;20232;-80
2022/10/30 11:23:38;;;;;;;10.52;4.35;;;23.90;91.60;;;;;;5051357;28;20707;-82
2022/10/30 11:26:21;;;;;;;9.50;5.20;;;23.80;91.80;;;;;;5057399;28;20210;-82
2022/10/30 11:28:50;;;;;;;9.15;4.50;;;23.60;92.00;;;;;;5023473;28;20227;-82
2022/10/30 11:31:22;;;;;;;9.75;4.05;;;23.50;91.00;;;;;;5027381;28;20240;-84
2022/10/30 11:33:50;;;;;;;6.57;3.63;;;23.90;90.50;;;;;;5027667;28;20215;-82
2022/10/30 11:36:22;;;;;;;8.73;4.07;;;24.00;90.20;;;;;;5018845;28;20210;-82
2022/10/30 11:38:49;;;;;;;10.63;3.92;;;24.70;89.90;;;;;;5018314;28;20196;-85
2022/10/30 11:41:18;;;;;;;6.93;4.05;;;24.20;87.60;;;;;;5020131;28;20228;-82
2022/10/30 11:43:47;;;;;;;8.77;4.38;;;24.00;87.10;;;;;;5018030;28;20204;-81
2022/10/30 11:46:24;;;;;;;8.60;4.13;;;23.70;88.00;;;;;;5018231;28;20200;-81
2022/10/30 11:48:54;;;;;;;9.18;4.55;;;23.90;88.10;;;;;;5031500;28;20223;-81
2022/10/30 11:51:36;;;;;;;8.55;3.90;;;23.80;87.30;;;;;;5037484;28;20211;-81
2022/10/30 11:54:04;;;;;;;8.30;3.65;;;23.70;87.40;;;;;;5018546;28;20187;-81
2022/10/30 11:56:34;;;;;;;8.68;4.53;;;23.60;87.70;;;;;;5034676;28;20203;-81
2022/10/30 11:59:08;;;;;;;8.50;3.75;;;23.80;87.80;;;;;;5034410;28;20192;-81
2022/10/30 12:01:59;;;;;;;9.07;3.58;;;23.80;87.30;;;;;;5035011;28;20227;-81
2022/10/30 12:04:32;;;;;;;6.70;4.55;;;23.80;88.10;;;;;;5016700;28;20208;-81
2022/10/30 12:07:20;;;;;;;9.82;4.38;;;23.90;86.40;;;;;;5018432;28;20200;-81
2022/10/30 12:10:02;;;;;;;6.45;3.50;;;24.00;86.10;;;;;;5021073;28;20218;-81
2022/10/30 12:12:56;;;;;;;9.93;4.20;;;24.80;86.70;;;;;;5028402;28;20192;-81
2022/10/30 12:15:31;;;;;;;7.90;4.18;;;25.20;82.30;;;;;;5011097;28;20210;-81
2022/10/30 12:18:04;;;;;;;8.85;4.35;;;24.80;84.30;;;;;;5029921;28;20558;-81
2022/10/30 12:20:33;;;;;;;8.52;4.05;;;24.50;83.70;;;;;;5019815;28;20254;-81
2022/10/30 12:23:09;;;;;;;8.65;3.83;;;24.30;84.00;;;;;;5020786;28;20213;-81
2022/10/30 12:25:39;;;;;;;9.10;4.50;;;25.10;83.10;;;;;;5042101;28;20205;-81
2022/10/30 12:28:14;;;;;;;10.27;4.65;;;25.30;82.00;;;;;;5013236;28;20212;-81
2022/10/30 12:30:51;;;;;;;8.90;4.07;;;25.40;80.60;;;;;;5036697;28;20218;-81
2022/10/30 12:33:24;;;;;;;6.88;3.70;;;26.00;80.30;;;;;;5019142;28;20203;-81
2022/10/30 12:35:57;;;;;;;9.95;4.65;;;25.70;77.00;;;;;;5036915;28;20203;-82
2022/10/30 12:38:39;;;;;;;;;;;;;;;;;;;;;
2022/10/30 12:41:14;;;;;;;8.45;4.00;;;25.80;75.80;;;;;;5008507;28;20236;-81
2022/10/30 12:43:49;;;;;;;8.60;3.70;;;24.90;77.60;;;;;;5032587;28;20204;-81
2022/10/30 12:46:33;;;;;;;10.88;4.55;;;25.00;78.00;;;;;;5018028;28;20203;-81
2022/10/30 12:49:15;;;;;;;7.30;4.03;;;24.80;77.30;;;;;;5021688;28;20215;-80
2022/10/30 12:51:51;;;;;;;8.60;4.28;;;24.60;76.20;;;;;;5035768;28;20223;-81
2022/10/30 12:54:32;;;;;;;8.82;3.72;;;24.70;75.30;;;;;;5020839;28;20198;-81
2022/10/30 12:57:11;;;;;;;8.65;4.35;;;24.40;74.70;;;;;;5019698;28;20795;-81
2022/10/30 12:59:53;;;;;;;8.85;4.10;;;24.20;76.30;;;;;;5017853;28;20206;-81
2022/10/30 13:02:33;;;;;;;9.02;4.47;;;24.10;76.20;;;;;;5021234;28;20202;-81
2022/10/30 13:05:09;;;;;;;7.53;4.07;;;24.00;77.40;;;;;;5022719;28;20218;-81
2022/10/30 13:07:45;;;;;;;8.65;4.07;;;24.20;77.30;;;;;;5038865;28;20195;-81
2022/10/30 13:10:25;;;;;;;7.18;4.07;;;24.20;77.20;;;;;;5039764;28;20576;-81
2022/10/30 13:13:16;;;;;;;12.43;4.30;;;24.30;77.50;;;;;;5005940;28;20204;-81
2022/10/30 13:15:51;;;;;;;11.30;4.55;;;24.30;76.40;;;;;;5021052;28;20207;-81
2022/10/30 13:18:21;;;;;;;6.22;4.38;;;24.20;77.10;;;;;;5018811;28;20184;-80
2022/10/30 13:21:22;;;;;;;7.32;3.80;;;24.00;77.10;;;;;;5032191;28;20760;-80